Time;durP1;ratioP1;P1;durP2;ratioP2;P2;SDS_P1;SDS_P2;PMS_P1;PMS_P2;Temp;Humidity;BMP_temperature;BMP_pressure;BME280_temperature;BME280_humidity;BME280_pressure;Samples;Min_cycle;Max_cycle;Signal;HPM_P1;HPM_P2
2022/10/14 00:02:08;;;;;;;7.07;3.17;;;;;;;13.33;51.95;94244.31;5063790;28;20025;-83
2022/10/14 00:04:34;;;;;;;6.88;3.10;;;;;;;13.28;52.31;94241.75;5063461;28;20049;-82
2022/10/14 00:06:59;;;;;;;14.82;3.45;;;;;;;13.21;52.35;94238.81;5063379;28;20092;-82
2022/10/14 00:09:24;;;;;;;8.95;3.03;;;;;;;13.12;52.87;94238.03;5063432;28;20088;-82
2022/10/14 00:11:50;;;;;;;11.90;2.95;;;;;;;13.03;53.41;94241.53;5063353;28;20024;-83
2022/10/14 00:14:18;;;;;;;6.10;2.80;;;;;;;13.00;53.66;94236.00;5063433;28;20254;-82
2022/10/14 00:16:46;;;;;;;13.50;3.28;;;;;;;12.95;54.12;94234.31;5062980;28;20036;-82
2022/10/14 00:19:13;;;;;;;6.68;2.63;;;;;;;12.91;54.55;94233.38;5063397;28;20035;-82
2022/10/14 00:21:41;;;;;;;10.77;3.95;;;;;;;12.84;54.95;94233.06;5062100;28;20025;-82
2022/10/14 00:24:07;;;;;;;7.47;2.22;;;;;;;12.80;54.89;94222.22;5063111;28;20048;-82
2022/10/14 00:26:36;;;;;;;4.55;2.30;;;;;;;12.78;55.38;94228.97;5062880;28;20032;-82
2022/10/14 00:29:04;;;;;;;7.47;2.28;;;;;;;12.75;55.51;94222.38;5063453;28;20048;-82
2022/10/14 00:31:31;;;;;;;4.63;2.22;;;;;;;12.78;55.52;94231.66;5063362;28;20047;-82
2022/10/14 00:33:56;;;;;;;4.15;2.10;;;;;;;12.74;55.99;94234.19;5063036;28;20095;-82
2022/10/14 00:36:23;;;;;;;6.28;2.25;;;;;;;12.77;56.18;94232.75;5062900;28;20195;-82
2022/10/14 00:38:50;;;;;;;7.35;2.85;;;;;;;12.74;56.39;94223.50;5062787;28;20318;-83
2022/10/14 00:41:29;;;;;;;14.07;2.90;;;;;;;12.77;56.03;94214.03;5062901;28;20021;-82
2022/10/14 00:43:55;;;;;;;6.72;2.65;;;;;;;12.74;56.29;94223.50;5062827;28;20210;-81
2022/10/14 00:46:21;;;;;;;7.55;2.42;;;;;;;12.70;56.52;94221.75;5061619;28;20024;-81
2022/10/14 00:48:47;;;;;;;4.65;2.35;;;;;;;12.73;56.31;94215.78;5062881;28;20067;-80
2022/10/14 00:51:13;;;;;;;7.93;2.50;;;;;;;12.74;56.09;94222.69;5062527;28;20016;-80
2022/10/14 00:53:42;;;;;;;7.47;2.75;;;;;;;12.70;56.23;94216.41;5062484;28;20028;-80
2022/10/14 00:56:10;;;;;;;11.52;3.40;;;;;;;12.70;56.12;94213.72;5062746;28;20207;-80
2022/10/14 00:58:37;;;;;;;8.88;2.67;;;;;;;12.67;56.49;94211.69;5062600;28;20024;-80
2022/10/14 01:01:03;;;;;;;6.50;2.35;;;;;;;12.68;56.72;94199.88;5062529;28;20029;-80
2022/10/14 01:03:28;;;;;;;5.93;2.20;;;;;;;12.65;56.82;94198.66;5062875;28;20025;-80
2022/10/14 01:06:08;;;;;;;5.47;2.72;;;;;;;12.63;56.85;94201.63;5062516;28;20090;-81
2022/10/14 01:08:46;;;;;;;8.50;2.70;;;;;;;12.62;56.93;94199.28;5061337;28;20177;-80
2022/10/14 01:12:01;;;;;;;5.78;2.88;;;;;;;12.61;56.97;94195.81;5061410;28;20058;-80
2022/10/14 01:14:37;;;;;;;6.28;2.97;;;;;;;12.58;56.57;94190.34;5060109;28;20054;-80
2022/10/14 01:17:17;;;;;;;7.85;2.28;;;;;;;12.61;56.66;94187.78;5062651;28;20021;-80
2022/10/14 01:19:51;;;;;;;7.65;2.72;;;;;;;12.60;56.76;94180.88;5062625;28;20157;-80
2022/10/14 01:22:51;;;;;;;3.30;1.70;;;;;;;12.65;56.71;94177.25;5062384;28;20025;-80
2022/10/14 01:25:23;;;;;;;4.65;1.92;;;;;;;12.59;57.06;94165.94;5062618;28;20041;-80
2022/10/14 01:28:03;;;;;;;7.10;2.25;;;;;;;12.62;56.90;94167.97;5062295;28;20311;-80
2022/10/14 01:30:52;;;;;;;4.43;1.77;;;;;;;12.65;57.00;94161.97;5062421;28;20071;-80
2022/10/14 01:33:30;;;;;;;5.45;1.88;;;;;;;12.65;56.66;94161.19;5061871;28;20090;-81
2022/10/14 01:36:09;;;;;;;6.40;2.03;;;;;;;12.64;57.18;94160.44;5062379;28;20088;-81
2022/10/14 01:38:40;;;;;;;6.38;1.83;;;;;;;12.70;57.15;94157.56;5061005;28;20048;-81
2022/10/14 01:41:08;;;;;;;4.03;1.85;;;;;;;12.72;57.45;94150.81;5062252;28;20025;-81
2022/10/14 01:43:36;;;;;;;5.15;2.55;;;;;;;12.75;57.74;94154.75;5062211;28;20094;-81
2022/10/14 01:46:05;;;;;;;3.78;1.60;;;;;;;12.78;57.90;94151.41;5062094;28;20035;-81
2022/10/14 01:48:35;;;;;;;8.38;2.22;;;;;;;12.78;57.66;94154.09;5063580;28;20029;-81
2022/10/14 01:51:05;;;;;;;5.45;1.77;;;;;;;12.77;57.94;94147.19;5066103;28;20033;-80
2022/10/14 01:53:46;;;;;;;8.52;1.80;;;;;;;12.77;58.09;94147.19;5066122;28;20104;-80
2022/10/14 01:56:14;;;;;;;2.25;1.30;;;;;;;12.75;58.08;94152.06;5065814;28;20039;-80
2022/10/14 01:58:40;;;;;;;8.30;2.08;;;;;;;12.67;58.54;94161.66;5065860;28;20017;-82
2022/10/14 02:01:07;;;;;;;4.90;1.83;;;;;;;12.67;58.63;94160.91;5065897;28;20025;-82
2022/10/14 02:03:44;;;;;;;4.10;1.50;;;;;;;12.65;58.91;94156.63;5065715;28;20127;-82
2022/10/14 02:06:20;;;;;;;7.47;2.60;;;;;;;12.58;59.05;94155.56;5065702;28;20236;-82
2022/10/14 02:08:57;;;;;;;5.03;1.65;;;;;;;12.58;59.17;94156.34;5065555;28;20261;-82
2022/10/14 02:11:23;;;;;;;5.32;3.28;;;;;;;12.60;59.17;94153.38;5065616;28;20029;-82
2022/10/14 02:14:25;;;;;;;5.93;2.20;;;;;;;12.58;59.41;94151.00;5064484;28;20029;-82
2022/10/14 02:17:10;;;;;;;3.73;1.67;;;;;;;12.60;59.57;94148.78;5065572;28;20333;-83
2022/10/14 02:19:45;;;;;;;10.30;1.63;;;;;;;12.57;59.66;94157.44;5065606;28;20315;-83
2022/10/14 02:22:18;;;;;;;3.38;1.70;;;;;;;12.56;59.91;94157.78;5065701;28;20040;-83
2022/10/14 02:24:50;;;;;;;7.10;1.65;;;;;;;12.52;59.82;94157.63;5065241;28;20060;-83
2022/10/14 02:27:19;;;;;;;10.63;1.95;;;;;;;12.51;60.22;94153.38;5065287;28;20106;-82
2022/10/14 02:29:47;;;;;;;7.65;1.90;;;;;;;12.48;60.35;94153.22;5065275;28;20060;-83
2022/10/14 02:32:15;;;;;;;3.38;1.73;;;;;;;12.50;60.62;94151.03;5064025;28;20088;-82
2022/10/14 02:34:44;;;;;;;3.03;1.52;;;;;;;12.44;61.05;94153.84;5065171;28;20028;-82
2022/10/14 02:37:11;;;;;;;3.28;1.30;;;;;;;12.46;61.18;94153.53;5065088;28;20029;-82
2022/10/14 02:39:43;;;;;;;8.43;1.48;;;;;;;12.45;61.56;94152.75;5065260;28;20048;-82
2022/10/14 02:42:08;;;;;;;4.63;1.60;;;;;;;12.41;62.09;94151.03;5065005;28;20278;-82
2022/10/14 02:44:34;;;;;;;9.57;2.08;;;;;;;12.39;62.00;94147.88;5097207;28;20263;-82
2022/10/14 02:46:59;;;;;;;9.43;2.03;;;;;;;12.33;62.13;94143.81;5065072;28;20103;-82
2022/10/14 02:49:25;;;;;;;5.00;2.25;;;;;;;12.35;62.10;94146.94;5065029;28;20021;-82
2022/10/14 02:51:50;;;;;;;10.65;2.35;;;;;;;12.35;62.12;94144.28;5065083;28;20226;-82
2022/10/14 02:54:16;;;;;;;5.50;2.03;;;;;;;12.32;62.31;94139.56;5064685;28;20171;-82
2022/10/14 02:56:41;;;;;;;3.53;1.80;;;;;;;12.34;62.27;94140.03;5064738;28;20040;-81
2022/10/14 02:59:06;;;;;;;3.85;1.70;;;;;;;12.34;62.29;94129.34;5096564;28;20029;-81
2022/10/14 03:01:32;;;;;;;4.97;1.70;;;;;;;12.33;62.34;94133.88;5064080;28;20040;-81
2022/10/14 03:03:57;;;;;;;5.72;2.10;;;;;;;12.33;62.36;94127.75;5063411;28;20146;-81
2022/10/14 03:06:23;;;;;;;5.70;2.05;;;;;;;12.33;62.42;94131.22;5064571;28;20178;-81
2022/10/14 03:08:49;;;;;;;3.22;2.28;;;;;;;12.33;62.43;94133.88;5064569;28;20095;-81
2022/10/14 03:11:14;;;;;;;4.72;2.03;;;;;;;12.28;62.37;94127.94;5064528;28;20100;-80
2022/10/14 03:13:40;;;;;;;4.57;2.15;;;;;;;12.28;62.44;94123.38;5064360;28;20111;-80
2022/10/14 03:16:05;;;;;;;5.07;1.88;;;;;;;12.33;62.30;94125.09;5064285;28;20088;-81
2022/10/14 03:18:31;;;;;;;4.07;2.30;;;;;;;12.32;64.12;94126.22;5064543;28;20024;-80
2022/10/14 03:20:56;;;;;;;4.55;2.33;;;;;;;12.27;63.92;94129.81;5064239;28;20024;-80
2022/10/14 03:23:22;;;;;;;7.72;2.42;;;;;;;12.28;63.65;94130.63;5064151;28;20040;-81
2022/10/14 03:25:47;;;;;;;5.10;1.77;;;;;;;12.22;63.89;94125.41;5064003;28;20268;-80
2022/10/14 03:28:13;;;;;;;3.05;2.13;;;;;;;12.20;64.17;94119.59;5063928;28;20337;-81
2022/10/14 03:30:38;;;;;;;2.22;1.52;;;;;;;12.18;64.20;94116.47;5063955;28;20016;-81
2022/10/14 03:33:04;;;;;;;4.85;1.88;;;;;;;12.10;64.91;94117.25;5063969;28;20043;-80
2022/10/14 03:35:29;;;;;;;9.88;2.40;;;;;;;12.12;64.66;94112.38;5063964;28;20083;-83
2022/10/14 03:37:55;;;;;;;5.25;2.80;;;;;;;12.11;65.16;94118.03;5064121;28;20299;-83
2022/10/14 03:40:21;;;;;;;8.32;2.63;;;;;;;12.08;65.39;94116.78;5063931;28;20353;-83
2022/10/14 03:42:47;;;;;;;3.20;2.20;;;;;;;12.08;65.15;94118.69;5063987;28;20180;-82
2022/10/14 03:45:12;;;;;;;3.40;2.20;;;;;;;12.05;65.48;94120.09;5063567;28;20017;-82
2022/10/14 03:47:38;;;;;;;4.35;1.90;;;;;;;12.02;65.92;94120.72;5063663;28;20028;-83
2022/10/14 03:50:04;;;;;;;3.78;2.28;;;;;;;12.01;65.57;94122.63;5063854;28;20096;-83
2022/10/14 03:52:31;;;;;;;5.35;1.88;;;;;;;12.03;65.82;94130.31;5063888;28;20268;-83
2022/10/14 03:54:56;;;;;;;5.82;2.63;;;;;;;12.04;65.98;94121.19;5063410;28;20096;-83
2022/10/14 03:57:21;;;;;;;7.55;2.30;;;;;;;12.04;66.21;94124.66;5063429;28;20239;-83
2022/10/14 03:59:47;;;;;;;3.42;2.40;;;;;;;12.04;66.28;94115.84;5063474;28;20071;-83
2022/10/14 04:02:12;;;;;;;11.40;2.67;;;;;;;11.98;66.28;94119.78;5063445;28;20028;-83
2022/10/14 04:04:38;;;;;;;3.72;2.50;;;;;;;11.93;66.68;94123.41;5063267;28;20021;-82
2022/10/14 04:07:03;;;;;;;5.10;3.03;;;;;;;11.96;66.79;94119.31;5063371;28;20028;-83
2022/10/14 04:09:29;;;;;;;4.53;2.58;;;;;;;11.93;66.64;94120.75;5062501;28;20033;-83
2022/10/14 04:11:56;;;;;;;4.25;2.75;;;;;;;11.92;67.14;94113.81;5063010;28;20025;-81
2022/10/14 04:14:23;;;;;;;6.75;2.75;;;;;;;11.89;67.20;94108.34;5063241;28;20240;-81
2022/10/14 04:16:48;;;;;;;5.72;2.92;;;;;;;11.94;66.76;94111.59;5063237;28;20048;-81
2022/10/14 04:19:13;;;;;;;9.43;3.65;;;;;;;11.95;66.63;94104.41;5062030;28;20032;-82
2022/10/14 04:21:39;;;;;;;34.40;6.25;;;;;;;11.95;66.75;94112.41;5063092;28;20218;-82
2022/10/14 04:24:05;;;;;;;14.75;3.88;;;;;;;11.94;66.60;94108.94;5062651;28;20076;-82
2022/10/14 04:26:30;;;;;;;6.30;3.83;;;;;;;11.92;66.85;94107.69;5063175;28;20033;-81
2022/10/14 04:28:55;;;;;;;4.75;3.20;;;;;;;11.95;66.68;94104.41;5062945;28;20274;-81
2022/10/14 04:31:21;;;;;;;10.63;4.53;;;;;;;11.97;66.65;94102.19;5062840;28;20056;-81
2022/10/14 04:33:47;;;;;;;6.35;3.58;;;;;;;11.99;66.67;94102.66;5062706;28;20021;-81
2022/10/14 04:36:13;;;;;;;8.07;3.92;;;;;;;11.95;66.67;94101.72;5062750;28;20021;-81
2022/10/14 04:38:38;;;;;;;8.40;4.18;;;;;;;11.89;66.88;94098.44;5062908;28;20074;-81
2022/10/14 04:41:04;;;;;;;8.90;4.65;;;;;;;11.94;67.05;94086.78;5062957;28;20028;-81
2022/10/14 04:43:29;;;;;;;9.50;4.55;;;;;;;11.88;66.93;94096.03;5061534;28;20036;-81
2022/10/14 04:45:54;;;;;;;7.07;4.53;;;;;;;11.84;67.27;94096.69;5062619;28;20326;-81
2022/10/14 04:48:20;;;;;;;13.60;7.82;;;;;;;11.86;67.22;94099.00;5062746;28;20254;-81
2022/10/14 04:50:49;;;;;;;6.43;3.88;;;;;;;11.90;67.29;94104.53;5062662;28;20027;-81
2022/10/14 04:53:15;;;;;;;9.38;4.22;;;;;;;11.88;67.02;94090.69;5062562;28;20374;-81
2022/10/14 04:55:40;;;;;;;8.32;4.47;;;;;;;11.83;67.57;94092.41;5062676;28;20086;-81
2022/10/14 04:58:06;;;;;;;7.65;4.30;;;;;;;11.82;67.82;94085.53;5062583;28;20269;-81
2022/10/14 05:00:31;;;;;;;13.10;4.80;;;;;;;11.78;67.94;94092.56;5062824;28;20025;-81
2022/10/14 05:02:56;;;;;;;9.90;4.68;;;;;;;11.76;67.89;94086.75;5062510;28;20032;-81
2022/10/14 05:05:22;;;;;;;10.48;4.60;;;;;;;11.74;67.71;94091.63;5062416;28;20222;-81
2022/10/14 05:07:47;;;;;;;6.28;3.60;;;;;;;11.73;67.74;94082.06;5062306;28;20028;-82
2022/10/14 05:10:13;;;;;;;12.63;4.72;;;;;;;11.73;67.64;94078.59;5062565;28;20051;-82
2022/10/14 05:12:38;;;;;;;10.15;4.72;;;;;;;11.77;67.47;94084.88;5062369;28;20027;-83
2022/10/14 05:15:05;;;;;;;9.82;4.47;;;;;;;11.79;67.24;94083.47;5062550;28;20040;-82
2022/10/14 05:17:31;;;;;;;8.52;4.85;;;;;;;11.85;67.01;94076.09;5062475;28;20017;-84
2022/10/14 05:19:57;;;;;;;13.77;5.75;;;;;;;11.88;66.87;94080.00;5062318;28;20362;-83
2022/10/14 05:22:22;;;;;;;21.85;5.88;;;;;;;11.91;66.91;94077.53;5062184;28;20025;-81
2022/10/14 05:24:47;;;;;;;7.90;4.50;;;;;;;11.95;66.71;94080.38;5065645;28;20045;-82
2022/10/14 05:27:13;;;;;;;13.98;5.22;;;;;;;12.05;66.19;94080.03;5066281;28;20056;-81
2022/10/14 05:29:38;;;;;;;12.43;5.93;;;;;;;12.10;66.01;94087.09;5065055;28;20299;-81
2022/10/14 05:32:04;;;;;;;14.90;5.15;;;;;;;12.13;65.82;94084.59;5066114;28;20323;-81
2022/10/14 05:34:29;;;;;;;19.05;4.18;;;;;;;12.19;65.80;94094.00;5066406;28;20032;-81
2022/10/14 05:36:55;;;;;;;11.55;4.05;;;;;;;12.22;65.17;94082.66;5066170;28;20024;-82
2022/10/14 05:39:20;;;;;;;10.50;4.13;;;;;;;12.22;65.04;94077.31;5066157;28;20091;-82
2022/10/14 05:41:45;;;;;;;9.60;3.85;;;;;;;12.29;64.91;94084.06;5065898;28;20028;-82
2022/10/14 05:44:11;;;;;;;6.00;3.63;;;;;;;12.33;64.81;94087.66;5065963;28;20025;-82
2022/10/14 05:46:36;;;;;;;5.55;3.55;;;;;;;12.37;64.46;94091.28;5065797;28;20315;-82
2022/10/14 05:49:04;;;;;;;11.40;3.92;;;;;;;12.42;64.47;94088.44;5065932;28;20020;-83
2022/10/14 05:51:31;;;;;;;8.80;4.03;;;;;;;12.48;63.90;94086.41;5066013;28;20025;-83
2022/10/14 05:53:57;;;;;;;17.80;4.45;;;;;;;12.51;63.66;94083.06;5065932;28;20312;-83
2022/10/14 05:56:22;;;;;;;5.78;3.72;;;;;;;12.61;63.23;94101.44;5065878;28;20013;-81
2022/10/14 05:58:48;;;;;;;9.55;4.95;;;;;;;12.63;63.52;94099.22;5064355;28;20055;-79
2022/10/14 06:01:13;;;;;;;6.18;4.00;;;;;;;12.74;62.97;94105.00;5065788;28;20040;-80
2022/10/14 06:03:39;;;;;;;7.45;3.55;;;;;;;12.80;62.45;94104.53;5065619;28;20280;-80
2022/10/14 06:06:04;;;;;;;8.45;3.47;;;;;;;12.85;62.43;94109.69;5065502;28;20020;-80
2022/10/14 06:08:30;;;;;;;14.63;3.97;;;;;;;12.90;62.15;94119.44;5065595;28;20047;-79
2022/10/14 06:10:55;;;;;;;5.95;3.65;;;;;;;12.94;61.86;94112.31;5065604;28;20048;-80
2022/10/14 06:13:21;;;;;;;5.95;3.92;;;;;;;13.00;61.30;94116.38;5065654;28;20037;-80
2022/10/14 06:15:47;;;;;;;7.72;3.40;;;;;;;12.95;61.70;94121.94;5065342;28;20334;-81
2022/10/14 06:18:12;;;;;;;10.90;3.65;;;;;;;13.02;60.92;94124.88;5065239;28;20044;-80
2022/10/14 06:20:38;;;;;;;11.63;4.32;;;;;;;13.05;60.84;94118.91;5065515;28;20033;-81
2022/10/14 06:23:04;;;;;;;12.73;3.47;;;;;;;13.04;60.88;94125.34;5065276;28;20028;-81
2022/10/14 06:25:30;;;;;;;9.57;4.90;;;;;;;13.08;60.84;94130.06;5065616;28;20028;-81
2022/10/14 06:28:01;;;;;;;12.13;3.92;;;;;;;13.10;60.89;94123.28;5065287;28;20028;-81
2022/10/14 06:30:27;;;;;;;8.27;4.47;;;;;;;13.14;60.29;94128.78;5065244;28;20345;-81
2022/10/14 06:32:53;;;;;;;9.55;4.90;;;;;;;13.12;60.63;94131.00;5063992;28;20025;-81
2022/10/14 06:35:18;;;;;;;8.45;3.97;;;;;;;13.12;59.86;94131.78;5064540;28;20257;-83
2022/10/14 06:37:45;;;;;;;16.73;4.07;;;;;;;13.03;60.16;94134.50;5065142;28;20238;-81
2022/10/14 06:40:10;;;;;;;7.18;4.80;;;;;;;13.04;60.38;94138.72;5064910;28;20021;-81
2022/10/14 06:42:35;;;;;;;8.90;4.00;;;;;;;13.02;60.24;94132.91;5065041;28;20047;-80
2022/10/14 06:45:01;;;;;;;13.52;4.60;;;;;;;13.04;60.11;94136.06;5064893;28;20021;-80
2022/10/14 06:47:26;;;;;;;11.27;5.10;;;;;;;13.09;60.24;94134.31;5064859;28;20025;-78
2022/10/14 06:49:52;;;;;;;7.40;4.10;;;;;;;13.10;60.13;94130.53;5064899;28;20025;-77
2022/10/14 06:52:17;;;;;;;15.30;4.40;;;;;;;13.07;59.75;94144.53;5064947;28;20017;-79
2022/10/14 06:54:43;;;;;;;10.05;4.00;;;;;;;13.08;59.82;94138.09;5064562;28;20055;-79
2022/10/14 06:57:08;;;;;;;5.90;3.65;;;;;;;13.08;59.83;94127.41;5064762;28;20374;-77
2022/10/14 06:59:33;;;;;;;5.68;3.58;;;;;;;13.15;59.76;94123.13;5065006;28;20029;-77
2022/10/14 07:01:59;;;;;;;13.98;4.60;;;;;;;13.17;60.01;94128.94;5064865;28;20105;-78
2022/10/14 07:04:24;;;;;;;16.08;5.05;;;;;;;13.23;59.84;94132.22;5064579;28;20017;-78
2022/10/14 07:06:50;;;;;;;13.15;5.03;;;;;;;13.27;59.89;94127.78;5064423;28;20021;-78
2022/10/14 07:09:16;;;;;;;9.98;4.68;;;;;;;13.33;59.77;94121.16;5064358;28;20017;-78
2022/10/14 07:11:41;;;;;;;6.25;4.32;;;;;;;13.41;61.20;94123.00;5064366;28;20092;-80
2022/10/14 07:14:08;;;;;;;12.90;4.43;;;;;;;13.59;65.85;94123.66;5064335;28;20033;-81
2022/10/14 07:16:33;;;;;;;11.13;4.82;;;;;;;13.78;61.69;94117.06;5064357;28;20024;-80
2022/10/14 07:18:59;;;;;;;9.00;4.70;;;;;;;13.98;63.01;94121.69;5064478;28;20033;-80
2022/10/14 07:21:24;;;;;;;5.25;3.83;;;;;;;14.14;61.44;94127.19;5064058;28;20391;-78
2022/10/14 07:23:49;;;;;;;7.40;4.00;;;;;;;14.29;59.34;94114.28;5064142;28;20326;-80
2022/10/14 07:26:15;;;;;;;9.68;4.22;;;;;;;14.43;59.22;94118.28;5064224;28;20370;-80
2022/10/14 07:28:40;;;;;;;10.02;4.68;;;;;;;14.58;58.97;94119.56;5064080;28;20314;-80
2022/10/14 07:31:08;;;;;;;6.25;4.10;;;;;;;14.66;56.24;94127.88;5063915;28;20020;-79
2022/10/14 07:33:38;;;;;;;9.15;4.82;;;;;;;14.59;57.32;94126.53;5063941;28;20051;-78
2022/10/14 07:36:08;;;;;;;7.43;3.55;;;;;;;14.74;57.35;94118.94;5063835;28;20183;-79
2022/10/14 07:38:34;;;;;;;9.77;4.25;;;;;;;14.85;55.75;94120.06;5063763;28;20044;-87
2022/10/14 07:41:21;;;;;;;9.63;3.78;;;;;;;14.95;55.30;94122.31;5063831;28;20091;-76
2022/10/14 07:43:48;;;;;;;5.80;3.75;;;;;;;14.99;53.78;94115.16;5063818;28;20052;-77
2022/10/14 07:46:16;;;;;;;9.45;3.78;;;;;;;15.01;51.83;94120.22;5062764;28;20035;-77
2022/10/14 07:48:42;;;;;;;12.13;3.13;;;;;;;15.04;52.71;94120.34;5063614;28;20025;-78
2022/10/14 07:51:08;;;;;;;14.05;3.95;;;;;;;15.10;54.54;94125.47;5063626;28;20028;-78
2022/10/14 07:53:34;;;;;;;6.45;4.05;;;;;;;15.19;53.07;94121.56;5063582;28;20087;-78
2022/10/14 07:56:00;;;;;;;25.48;4.75;;;;;;;15.26;54.03;94118.31;5063428;28;20357;-78
2022/10/14 07:58:28;;;;;;;13.95;4.55;;;;;;;15.32;54.70;94125.03;5063616;28;20028;-78
2022/10/14 08:00:53;;;;;;;7.35;4.03;;;;;;;15.40;52.46;94124.13;5062476;28;20471;-78
2022/10/14 08:03:20;;;;;;;13.15;3.92;;;;;;;15.39;51.73;94122.56;5063301;28;20036;-78
2022/10/14 08:05:46;;;;;;;15.85;3.85;;;;;;;15.35;50.91;94118.22;5063275;28;20055;-80
2022/10/14 08:08:13;;;;;;;20.48;4.80;;;;;;;15.29;50.34;94123.03;5063238;28;20087;-84
2022/10/14 08:10:39;;;;;;;10.90;3.78;;;;;;;15.31;50.74;94117.31;5063454;28;20222;-84
2022/10/14 08:13:05;;;;;;;15.98;5.30;;;;;;;15.28;50.87;94129.50;5063227;28;20071;-83
2022/10/14 08:15:37;;;;;;;12.77;3.95;;;;;;;15.20;50.64;94119.66;5063443;28;20343;-75
2022/10/14 08:18:04;;;;;;;7.05;3.72;;;;;;;15.18;51.60;94125.38;5063505;28;20017;-82
2022/10/14 08:20:31;;;;;;;13.75;4.00;;;;;;;15.16;51.46;94130.31;5063221;28;20024;-83
2022/10/14 08:22:56;;;;;;;11.45;4.57;;;;;;;15.13;50.96;94127.50;5063160;28;20044;-79
2022/10/14 08:25:22;;;;;;;4.43;3.17;;;;;;;15.15;50.76;94125.25;5063199;28;20318;-85
2022/10/14 08:27:52;;;;;;;9.45;3.47;;;;;;;15.20;50.00;94125.81;5061928;28;20215;-87
2022/10/14 08:30:18;;;;;;;14.82;4.38;;;;;;;15.22;49.84;94133.53;5063254;28;20036;-78
2022/10/14 08:32:44;;;;;;;8.15;3.53;;;;;;;15.20;49.35;94123.13;5061885;28;20028;-80
2022/10/14 08:35:10;;;;;;;8.18;4.43;;;;;;;15.25;48.82;94128.28;5062672;28;20039;-78
2022/10/14 08:37:36;;;;;;;12.45;3.20;;;;;;;15.29;47.25;94127.63;5060648;28;20035;-83
2022/10/14 08:40:02;;;;;;;6.68;3.10;;;;;;;15.23;46.72;94125.13;5062550;28;20021;-76
2022/10/14 08:42:53;;;;;;;16.73;2.72;;;;;;;15.21;46.52;94129.28;5062174;28;20021;-75
2022/10/14 08:45:37;;;;;;;8.25;3.08;;;;;;;15.25;45.85;94130.97;5062924;28;20031;-74
2022/10/14 08:48:17;;;;;;;9.45;3.33;;;;;;;15.25;46.83;94127.50;5061673;28;20048;-74
2022/10/14 08:50:50;;;;;;;5.43;2.70;;;;;;;15.36;47.03;94130.50;5062478;28;20024;-73
2022/10/14 08:53:19;;;;;;;10.60;2.95;;;;;;;15.40;47.02;94137.56;5062593;28;20075;-74
2022/10/14 08:55:51;;;;;;;8.73;2.67;;;;;;;15.46;45.84;94140.81;5062774;28;20327;-74
2022/10/14 08:58:45;;;;;;;5.38;2.42;;;;;;;15.42;45.89;94132.63;5061279;28;20208;-75
2022/10/14 09:01:30;;;;;;;7.57;2.60;;;;;;;15.43;45.31;94136.91;5061789;28;20020;-78
2022/10/14 09:04:03;;;;;;;5.75;2.47;;;;;;;15.50;45.08;94130.94;5062278;28;20043;-80
2022/10/14 09:06:31;;;;;;;5.68;2.53;;;;;;;15.50;43.96;94124.81;5061502;28;20268;-78
2022/10/14 09:09:06;;;;;;;8.40;2.28;;;;;;;15.56;44.47;94128.81;5062263;28;20024;-78
2022/10/14 09:11:38;;;;;;;3.95;2.20;;;;;;;15.63;43.99;94135.19;5062225;28;20234;-79
2022/10/14 09:14:08;;;;;;;5.05;2.00;;;;;;;15.67;44.19;94129.13;5062224;28;20016;-79
2022/10/14 09:16:37;;;;;;;6.22;2.17;;;;;;;15.73;42.87;94125.91;5061239;28;20246;-79
2022/10/14 09:19:09;;;;;;;10.00;3.58;;;;;;;15.76;42.57;94127.94;5061495;28;20025;-79
2022/10/14 09:21:42;;;;;;;6.28;2.35;;;;;;;15.82;42.45;94126.56;5060878;28;20338;-79
2022/10/14 09:24:15;;;;;;;7.25;2.22;;;;;;;15.93;42.08;94121.50;5060653;28;20299;-78
2022/10/14 09:26:46;;;;;;;8.38;2.38;;;;;;;15.99;41.83;94130.13;5060821;28;20074;-78
2022/10/14 09:29:27;;;;;;;14.07;3.20;;;;;;;16.03;40.13;94120.25;5060473;28;20036;-78
2022/10/14 09:32:05;;;;;;;6.20;3.13;;;;;;;16.10;41.05;94125.84;5060992;28;20032;-78
2022/10/14 09:34:36;;;;;;;21.48;3.10;;;;;;;16.19;41.46;94114.94;5061634;28;20017;-78
2022/10/14 09:37:28;;;;;;;8.20;3.35;;;;;;;16.30;41.35;94117.91;5062350;28;20036;-78
2022/10/14 09:40:00;;;;;;;5.28;2.78;;;;;;;16.39;41.05;94121.25;5059626;28;20044;-78
2022/10/14 09:42:39;;;;;;;4.07;2.45;;;;;;;16.48;41.16;94121.88;5062094;28;20033;-78
2022/10/14 09:45:05;;;;;;;10.95;3.08;;;;;;;16.56;40.31;94125.53;5062072;28;20323;-78
2022/10/14 09:47:34;;;;;;;10.20;2.38;;;;;;;16.54;40.45;94117.78;5062159;28;20028;-78
2022/10/14 09:50:07;;;;;;;7.35;2.60;;;;;;;16.52;40.33;94120.03;5062074;28;20241;-78
2022/10/14 09:52:33;;;;;;;7.47;2.90;;;;;;;16.61;39.98;94119.91;5062298;28;20086;-78
2022/10/14 09:55:00;;;;;;;4.00;2.42;;;;;;;16.66;40.04;94125.03;5062024;28;20306;-78
2022/10/14 09:57:26;;;;;;;8.13;2.78;;;;;;;16.66;40.25;94130.41;5061848;28;20021;-78
2022/10/14 10:00:02;;;;;;;12.95;3.35;;;;;;;16.73;40.12;94125.22;5061932;28;20025;-78
2022/10/14 10:02:40;;;;;;;5.78;3.15;;;;;;;16.83;40.81;94127.44;5061787;28;20044;-78
2022/10/14 10:05:29;;;;;;;10.70;2.92;;;;;;;16.96;40.92;94122.75;5061834;28;20267;-79
2022/10/14 10:08:10;;;;;;;17.55;3.30;;;;;;;16.98;39.81;94117.81;5061765;28;20043;-79
2022/10/14 10:10:35;;;;;;;5.78;2.50;;;;;;;17.07;38.96;94122.22;5064846;28;20021;-79
2022/10/14 10:13:01;;;;;;;5.38;2.70;;;;;;;17.08;39.21;94113.03;5065812;28;20025;-79
2022/10/14 10:15:27;;;;;;;6.95;2.63;;;;;;;17.04;38.87;94119.09;5065676;28;20033;-79
2022/10/14 10:17:53;;;;;;;5.30;3.40;;;;;;;17.05;39.19;94112.56;5065467;28;20033;-78
2022/10/14 10:20:27;;;;;;;10.40;3.25;;;;;;;17.12;38.76;94109.31;5097942;28;20105;-79
2022/10/14 10:22:54;;;;;;;5.72;2.60;;;;;;;17.10;38.38;94110.78;5065279;28;20214;-75
2022/10/14 10:25:25;;;;;;;5.72;2.15;;;;;;;17.11;38.01;94109.63;5065451;28;20226;-76
2022/10/14 10:27:51;;;;;;;4.95;2.10;;;;;;;17.10;37.86;94113.47;5065236;28;20027;-76
2022/10/14 10:30:17;;;;;;;12.18;2.50;;;;;;;17.11;37.50;94104.25;5065352;28;20021;-76
2022/10/14 10:32:54;;;;;;;13.23;2.25;;;;;;;17.17;37.56;94100.16;5065064;28;20218;-77
2022/10/14 10:35:50;;;;;;;5.18;2.28;;;;;;;17.22;37.97;94099.91;5065121;28;20092;-76
2022/10/14 10:38:31;;;;;;;10.48;2.47;;;;;;;17.33;37.83;94105.53;5064748;28;20167;-77
2022/10/14 10:41:29;;;;;;;7.57;2.63;;;;;;;17.34;38.72;94093.63;5064643;28;20045;-77
2022/10/14 10:43:56;;;;;;;14.10;2.17;;;;;;;17.47;38.69;94089.72;5064975;28;20029;-77
2022/10/14 10:46:40;;;;;;;6.55;1.85;;;;;;;17.50;38.97;94090.91;5064573;28;20044;-77
2022/10/14 10:49:28;;;;;;;10.43;2.28;;;;;;;17.52;38.00;94091.34;5064510;28;20025;-77
2022/10/14 10:52:11;;;;;;;3.95;1.98;;;;;;;17.42;37.77;94084.56;5064913;28;20069;-79
2022/10/14 10:54:47;;;;;;;4.47;1.80;;;;;;;17.49;37.93;94081.28;5064623;28;20088;-79
2022/10/14 10:57:41;;;;;;;5.53;1.85;;;;;;;17.55;37.17;94093.34;5063838;28;20096;-79
2022/10/14 11:00:11;;;;;;;11.63;1.95;;;;;;;17.58;37.12;94084.53;5056765;28;20032;-79
2022/10/14 11:02:49;;;;;;;3.33;1.75;;;;;;;17.59;37.09;94078.81;5064702;28;20055;-79
2022/10/14 11:05:33;;;;;;;8.20;1.48;;;;;;;17.65;35.21;94087.41;5064729;28;20214;-79
2022/10/14 11:14:10;;;;;;;2.58;1.30;;;;;;;17.45;35.61;94070.41;5063863;28;20079;-79
2022/10/14 11:16:38;;;;;;;4.53;1.65;;;;;;;17.48;34.39;94069.69;5062359;28;20365;-79
2022/10/14 11:19:26;;;;;;;2.20;1.00;;;;;;;17.39;34.61;94067.19;5062744;28;20029;-79
2022/10/14 11:22:28;;;;;;;2.28;1.20;;;;;;;17.32;34.44;94066.25;5061842;28;20302;-79
2022/10/14 11:25:05;;;;;;;2.65;0.98;;;;;;;17.21;33.09;94064.09;5062715;28;20373;-79
2022/10/14 11:27:33;;;;;;;2.67;1.27;;;;;;;17.15;33.75;94056.63;5062858;28;20060;-79
2022/10/14 11:30:07;;;;;;;2.70;1.02;;;;;;;17.16;33.98;94055.53;5063757;28;20029;-79
2022/10/14 11:32:56;;;;;;;5.93;1.42;;;;;;;17.13;33.17;94051.59;5064402;28;20025;-79
2022/10/14 11:35:40;;;;;;;6.47;0.88;;;;;;;17.15;30.41;94038.56;5062689;28;20025;-79
2022/10/14 11:38:21;;;;;;;1.67;1.00;;;;;;;17.22;30.55;94032.56;5063003;28;20200;-79
2022/10/14 11:40:58;;;;;;;1.07;0.70;;;;;;;17.22;31.19;94048.75;5063701;28;20025;-79
2022/10/14 11:43:31;;;;;;;3.22;0.80;;;;;;;17.29;28.38;94038.09;5063739;28;20032;-79
2022/10/14 11:46:06;;;;;;;3.50;0.95;;;;;;;17.31;27.79;94030.47;5063630;28;20184;-79
2022/10/14 11:48:38;;;;;;;2.60;1.00;;;;;;;17.47;28.43;94030.44;5064029;28;20029;-79
2022/10/14 11:51:16;;;;;;;;;;;;;;;17.56;27.79;94017.50;5064308;28;20020;-79